sensor_id;sensor_type;location;lat;lon;timestamp;P1;durP1;ratioP1;P2;durP2;ratioP2
18661;SDS011;61528;49.456;11.098;2023-04-25T00:02:19;4.40;;;4.00;;
18661;SDS011;61528;49.456;11.098;2023-04-25T00:04:46;4.47;;;3.97;;
18661;SDS011;61528;49.456;11.098;2023-04-25T00:07:17;5.03;;;4.13;;
18661;SDS011;61528;49.456;11.098;2023-04-25T00:09:44;5.63;;;4.20;;
18661;SDS011;61528;49.456;11.098;2023-04-25T00:12:11;5.10;;;4.60;;
18661;SDS011;61528;49.456;11.098;2023-04-25T00:14:48;4.17;;;3.77;;
18661;SDS011;61528;49.456;11.098;2023-04-25T00:17:20;3.83;;;3.53;;
18661;SDS011;61528;49.456;11.098;2023-04-25T00:19:47;4.27;;;3.87;;
18661;SDS011;61528;49.456;11.098;2023-04-25T00:22:13;4.00;;;3.60;;
18661;SDS011;61528;49.456;11.098;2023-04-25T00:24:40;4.90;;;4.00;;
18661;SDS011;61528;49.456;11.098;2023-04-25T00:27:06;5.60;;;3.60;;
18661;SDS011;61528;49.456;11.098;2023-04-25T00:29:39;4.17;;;3.77;;
18661;SDS011;61528;49.456;11.098;2023-04-25T00:32:08;4.20;;;3.73;;
18661;SDS011;61528;49.456;11.098;2023-04-25T00:34:38;4.33;;;3.90;;
18661;SDS011;61528;49.456;11.098;2023-04-25T00:37:05;3.90;;;3.50;;
18661;SDS011;61528;49.456;11.098;2023-04-25T00:39:38;4.27;;;3.87;;
18661;SDS011;61528;49.456;11.098;2023-04-25T00:42:04;4.07;;;3.73;;
18661;SDS011;61528;49.456;11.098;2023-04-25T00:44:31;5.07;;;3.53;;
18661;SDS011;61528;49.456;11.098;2023-04-25T00:46:57;4.67;;;3.77;;
18661;SDS011;61528;49.456;11.098;2023-04-25T00:49:24;5.00;;;3.77;;
18661;SDS011;61528;49.456;11.098;2023-04-25T00:51:50;4.53;;;3.70;;
18661;SDS011;61528;49.456;11.098;2023-04-25T00:54:17;4.23;;;3.70;;
18661;SDS011;61528;49.456;11.098;2023-04-25T00:56:43;4.13;;;3.60;;
18661;SDS011;61528;49.456;11.098;2023-04-25T00:59:10;4.97;;;3.50;;
18661;SDS011;61528;49.456;11.098;2023-04-25T01:01:37;4.30;;;3.90;;
18661;SDS011;61528;49.456;11.098;2023-04-25T01:04:04;4.57;;;3.30;;
18661;SDS011;61528;49.456;11.098;2023-04-25T01:06:30;4.33;;;3.87;;
18661;SDS011;61528;49.456;11.098;2023-04-25T01:08:57;4.80;;;3.30;;
18661;SDS011;61528;49.456;11.098;2023-04-25T01:11:24;3.77;;;3.37;;
18661;SDS011;61528;49.456;11.098;2023-04-25T01:13:51;3.90;;;3.50;;
18661;SDS011;61528;49.456;11.098;2023-04-25T01:16:17;3.30;;;3.00;;
18661;SDS011;61528;49.456;11.098;2023-04-25T01:18:43;3.30;;;2.83;;
18661;SDS011;61528;49.456;11.098;2023-04-25T01:21:11;3.53;;;3.10;;
18661;SDS011;61528;49.456;11.098;2023-04-25T01:23:39;3.30;;;2.90;;
18661;SDS011;61528;49.456;11.098;2023-04-25T01:26:06;3.90;;;3.23;;
18661;SDS011;61528;49.456;11.098;2023-04-25T01:28:33;3.10;;;2.83;;
18661;SDS011;61528;49.456;11.098;2023-04-25T01:30:59;3.30;;;3.00;;
18661;SDS011;61528;49.456;11.098;2023-04-25T01:33:26;3.90;;;3.30;;
18661;SDS011;61528;49.456;11.098;2023-04-25T01:35:52;3.87;;;3.20;;
18661;SDS011;61528;49.456;11.098;2023-04-25T01:38:19;3.73;;;3.20;;
18661;SDS011;61528;49.456;11.098;2023-04-25T01:40:45;3.70;;;3.00;;
18661;SDS011;61528;49.456;11.098;2023-04-25T01:43:15;3.53;;;3.23;;
18661;SDS011;61528;49.456;11.098;2023-04-25T01:45:41;3.37;;;3.00;;
18661;SDS011;61528;49.456;11.098;2023-04-25T01:48:08;3.60;;;3.30;;
18661;SDS011;61528;49.456;11.098;2023-04-25T01:50:34;3.60;;;3.30;;
18661;SDS011;61528;49.456;11.098;2023-04-25T01:53:01;3.50;;;3.20;;
18661;SDS011;61528;49.456;11.098;2023-04-25T01:55:27;3.63;;;3.33;;
18661;SDS011;61528;49.456;11.098;2023-04-25T01:57:53;4.20;;;3.37;;
18661;SDS011;61528;49.456;11.098;2023-04-25T02:00:20;4.30;;;3.07;;
18661;SDS011;61528;49.456;11.098;2023-04-25T02:02:46;4.10;;;3.03;;
18661;SDS011;61528;49.456;11.098;2023-04-25T02:05:13;4.60;;;3.60;;
18661;SDS011;61528;49.456;11.098;2023-04-25T02:07:39;7.10;;;4.10;;
18661;SDS011;61528;49.456;11.098;2023-04-25T02:10:06;3.73;;;3.30;;
18661;SDS011;61528;49.456;11.098;2023-04-25T02:12:32;4.80;;;3.43;;
18661;SDS011;61528;49.456;11.098;2023-04-25T02:14:58;4.90;;;4.07;;
18661;SDS011;61528;49.456;11.098;2023-04-25T02:17:24;4.27;;;3.70;;
18661;SDS011;61528;49.456;11.098;2023-04-25T02:19:51;5.17;;;4.13;;
18661;SDS011;61528;49.456;11.098;2023-04-25T02:22:18;4.57;;;3.97;;
18661;SDS011;61528;49.456;11.098;2023-04-25T02:24:45;4.37;;;3.60;;
18661;SDS011;61528;49.456;11.098;2023-04-25T02:27:12;4.77;;;4.27;;
18661;SDS011;61528;49.456;11.098;2023-04-25T02:29:38;4.17;;;3.77;;
18661;SDS011;61528;49.456;11.098;2023-04-25T02:32:04;5.00;;;3.87;;
18661;SDS011;61528;49.456;11.098;2023-04-25T02:34:30;4.33;;;3.93;;
18661;SDS011;61528;49.456;11.098;2023-04-25T02:36:57;4.87;;;4.10;;
18661;SDS011;61528;49.456;11.098;2023-04-25T02:39:23;4.77;;;4.30;;
18661;SDS011;61528;49.456;11.098;2023-04-25T02:41:50;4.93;;;4.30;;
18661;SDS011;61528;49.456;11.098;2023-04-25T02:44:16;5.17;;;4.43;;
18661;SDS011;61528;49.456;11.098;2023-04-25T02:46:42;5.40;;;4.43;;
18661;SDS011;61528;49.456;11.098;2023-04-25T02:49:08;4.40;;;4.00;;
18661;SDS011;61528;49.456;11.098;2023-04-25T02:51:35;5.10;;;4.60;;
18661;SDS011;61528;49.456;11.098;2023-04-25T02:54:01;6.23;;;4.53;;
18661;SDS011;61528;49.456;11.098;2023-04-25T02:56:27;6.10;;;4.70;;
18661;SDS011;61528;49.456;11.098;2023-04-25T02:58:53;5.90;;;5.30;;
18661;SDS011;61528;49.456;11.098;2023-04-25T03:01:19;5.20;;;4.70;;
18661;SDS011;61528;49.456;11.098;2023-04-25T03:03:45;8.43;;;5.37;;
18661;SDS011;61528;49.456;11.098;2023-04-25T03:06:11;8.33;;;5.37;;
18661;SDS011;61528;49.456;11.098;2023-04-25T03:08:37;5.43;;;4.77;;
18661;SDS011;61528;49.456;11.098;2023-04-25T03:11:04;5.93;;;5.33;;
18661;SDS011;61528;49.456;11.098;2023-04-25T03:13:30;7.43;;;5.83;;
18661;SDS011;61528;49.456;11.098;2023-04-25T03:15:56;7.27;;;5.20;;
18661;SDS011;61528;49.456;11.098;2023-04-25T03:18:22;7.10;;;5.63;;
18661;SDS011;61528;49.456;11.098;2023-04-25T03:20:48;8.10;;;6.47;;
18661;SDS011;61528;49.456;11.098;2023-04-25T03:23:15;7.40;;;6.50;;
18661;SDS011;61528;49.456;11.098;2023-04-25T03:25:41;6.77;;;5.83;;
18661;SDS011;61528;49.456;11.098;2023-04-25T03:28:07;7.73;;;6.37;;
18661;SDS011;61528;49.456;11.098;2023-04-25T03:30:33;8.30;;;6.43;;
18661;SDS011;61528;49.456;11.098;2023-04-25T03:32:59;37.00;;;24.87;;
18661;SDS011;61528;49.456;11.098;2023-04-25T03:35:26;10.37;;;8.13;;
18661;SDS011;61528;49.456;11.098;2023-04-25T03:37:52;8.90;;;6.67;;
18661;SDS011;61528;49.456;11.098;2023-04-25T03:40:18;7.33;;;6.47;;
18661;SDS011;61528;49.456;11.098;2023-04-25T03:42:45;7.87;;;6.57;;
18661;SDS011;61528;49.456;11.098;2023-04-25T03:45:11;8.27;;;6.47;;
18661;SDS011;61528;49.456;11.098;2023-04-25T03:47:37;7.93;;;6.27;;
18661;SDS011;61528;49.456;11.098;2023-04-25T03:50:04;7.93;;;6.60;;
18661;SDS011;61528;49.456;11.098;2023-04-25T03:52:30;8.33;;;6.63;;
18661;SDS011;61528;49.456;11.098;2023-04-25T03:54:56;6.87;;;6.17;;
18661;SDS011;61528;49.456;11.098;2023-04-25T03:57:23;6.93;;;6.23;;
18661;SDS011;61528;49.456;11.098;2023-04-25T03:59:49;8.00;;;6.47;;
18661;SDS011;61528;49.456;11.098;2023-04-25T04:02:17;7.30;;;5.93;;
18661;SDS011;61528;49.456;11.098;2023-04-25T04:04:44;6.60;;;5.90;;
18661;SDS011;61528;49.456;11.098;2023-04-25T04:07:10;8.37;;;6.10;;
18661;SDS011;61528;49.456;11.098;2023-04-25T04:09:37;7.40;;;6.17;;
18661;SDS011;61528;49.456;11.098;2023-04-25T04:12:03;6.57;;;5.87;;
18661;SDS011;61528;49.456;11.098;2023-04-25T04:14:29;6.90;;;5.63;;
18661;SDS011;61528;49.456;11.098;2023-04-25T04:16:56;7.10;;;5.80;;
18661;SDS011;61528;49.456;11.098;2023-04-25T04:19:22;6.83;;;6.07;;
18661;SDS011;61528;49.456;11.098;2023-04-25T04:21:48;7.83;;;6.10;;
18661;SDS011;61528;49.456;11.098;2023-04-25T04:24:14;7.23;;;5.87;;
18661;SDS011;61528;49.456;11.098;2023-04-25T04:26:42;8.80;;;6.47;;
18661;SDS011;61528;49.456;11.098;2023-04-25T04:29:10;6.30;;;5.70;;
18661;SDS011;61528;49.456;11.098;2023-04-25T04:31:37;6.50;;;5.33;;
18661;SDS011;61528;49.456;11.098;2023-04-25T04:34:03;6.47;;;5.83;;
18661;SDS011;61528;49.456;11.098;2023-04-25T04:36:29;7.20;;;5.40;;
18661;SDS011;61528;49.456;11.098;2023-04-25T04:38:56;6.57;;;5.90;;
18661;SDS011;61528;49.456;11.098;2023-04-25T04:41:22;7.60;;;6.03;;
18661;SDS011;61528;49.456;11.098;2023-04-25T04:43:48;8.10;;;5.60;;
18661;SDS011;61528;49.456;11.098;2023-04-25T04:46:14;6.63;;;5.73;;
18661;SDS011;61528;49.456;11.098;2023-04-25T04:48:41;7.90;;;5.63;;
18661;SDS011;61528;49.456;11.098;2023-04-25T04:51:07;8.03;;;6.47;;
18661;SDS011;61528;49.456;11.098;2023-04-25T04:53:33;6.70;;;5.90;;
18661;SDS011;61528;49.456;11.098;2023-04-25T04:56:00;8.27;;;6.20;;
18661;SDS011;61528;49.456;11.098;2023-04-25T04:58:26;6.80;;;6.10;;
18661;SDS011;61528;49.456;11.098;2023-04-25T05:00:54;8.73;;;6.33;;
18661;SDS011;61528;49.456;11.098;2023-04-25T05:03:20;8.37;;;6.20;;
18661;SDS011;61528;49.456;11.098;2023-04-25T05:05:47;7.70;;;6.33;;
18661;SDS011;61528;49.456;11.098;2023-04-25T05:08:13;8.07;;;6.93;;
18661;SDS011;61528;49.456;11.098;2023-04-25T05:10:40;7.27;;;6.53;;
18661;SDS011;61528;49.456;11.098;2023-04-25T05:13:06;7.60;;;6.50;;
18661;SDS011;61528;49.456;11.098;2023-04-25T05:15:33;7.70;;;6.30;;
18661;SDS011;61528;49.456;11.098;2023-04-25T05:17:59;7.00;;;5.87;;
18661;SDS011;61528;49.456;11.098;2023-04-25T05:20:26;6.63;;;5.43;;
18661;SDS011;61528;49.456;11.098;2023-04-25T05:22:52;6.97;;;5.97;;
18661;SDS011;61528;49.456;11.098;2023-04-25T05:25:19;7.23;;;6.50;;
18661;SDS011;61528;49.456;11.098;2023-04-25T05:27:45;6.73;;;5.80;;
18661;SDS011;61528;49.456;11.098;2023-04-25T05:30:11;7.17;;;6.10;;
18661;SDS011;61528;49.456;11.098;2023-04-25T05:32:37;7.43;;;5.43;;
18661;SDS011;61528;49.456;11.098;2023-04-25T05:35:04;6.47;;;5.73;;
18661;SDS011;61528;49.456;11.098;2023-04-25T05:37:31;7.77;;;6.10;;
18661;SDS011;61528;49.456;11.098;2023-04-25T05:39:57;6.23;;;5.63;;
18661;SDS011;61528;49.456;11.098;2023-04-25T05:42:24;7.10;;;5.60;;
18661;SDS011;61528;49.456;11.098;2023-04-25T05:44:50;7.67;;;6.93;;
18661;SDS011;61528;49.456;11.098;2023-04-25T05:47:19;8.30;;;6.77;;
18661;SDS011;61528;49.456;11.098;2023-04-25T05:49:45;7.00;;;5.77;;
18661;SDS011;61528;49.456;11.098;2023-04-25T05:52:11;6.07;;;5.47;;
18661;SDS011;61528;49.456;11.098;2023-04-25T05:54:37;6.07;;;5.33;;
18661;SDS011;61528;49.456;11.098;2023-04-25T05:57:04;6.30;;;5.37;;
18661;SDS011;61528;49.456;11.098;2023-04-25T05:59:30;6.90;;;5.67;;
18661;SDS011;61528;49.456;11.098;2023-04-25T06:01:56;5.93;;;5.33;;
18661;SDS011;61528;49.456;11.098;2023-04-25T06:04:23;6.43;;;5.23;;
18661;SDS011;61528;49.456;11.098;2023-04-25T06:06:49;6.30;;;4.83;;
18661;SDS011;61528;49.456;11.098;2023-04-25T06:09:15;5.57;;;4.53;;
18661;SDS011;61528;49.456;11.098;2023-04-25T06:11:41;6.93;;;6.13;;
18661;SDS011;61528;49.456;11.098;2023-04-25T06:14:07;7.77;;;5.70;;
18661;SDS011;61528;49.456;11.098;2023-04-25T06:16:33;8.77;;;5.77;;
18661;SDS011;61528;49.456;11.098;2023-04-25T06:19:00;6.70;;;5.50;;
18661;SDS011;61528;49.456;11.098;2023-04-25T06:21:26;8.20;;;6.00;;
18661;SDS011;61528;49.456;11.098;2023-04-25T06:23:52;6.63;;;5.67;;
18661;SDS011;61528;49.456;11.098;2023-04-25T06:26:18;8.57;;;6.30;;
18661;SDS011;61528;49.456;11.098;2023-04-25T06:28:45;7.40;;;6.40;;
18661;SDS011;61528;49.456;11.098;2023-04-25T06:31:11;8.40;;;6.10;;
18661;SDS011;61528;49.456;11.098;2023-04-25T06:33:37;7.27;;;6.57;;
18661;SDS011;61528;49.456;11.098;2023-04-25T06:36:04;7.60;;;6.60;;
18661;SDS011;61528;49.456;11.098;2023-04-25T06:38:30;7.70;;;6.83;;
18661;SDS011;61528;49.456;11.098;2023-04-25T06:40:56;7.07;;;6.43;;
18661;SDS011;61528;49.456;11.098;2023-04-25T06:43:23;7.27;;;6.40;;
18661;SDS011;61528;49.456;11.098;2023-04-25T06:45:50;7.80;;;7.00;;
18661;SDS011;61528;49.456;11.098;2023-04-25T06:48:16;10.73;;;7.40;;
18661;SDS011;61528;49.456;11.098;2023-04-25T06:50:42;7.83;;;7.03;;
18661;SDS011;61528;49.456;11.098;2023-04-25T06:53:08;7.87;;;6.50;;
18661;SDS011;61528;49.456;11.098;2023-04-25T06:55:36;7.80;;;7.00;;
18661;SDS011;61528;49.456;11.098;2023-04-25T06:58:02;8.80;;;7.13;;
18661;SDS011;61528;49.456;11.098;2023-04-25T07:00:29;9.93;;;6.80;;
18661;SDS011;61528;49.456;11.098;2023-04-25T07:02:55;9.07;;;7.47;;
18661;SDS011;61528;49.456;11.098;2023-04-25T07:05:21;7.83;;;7.03;;
18661;SDS011;61528;49.456;11.098;2023-04-25T07:07:48;7.93;;;7.13;;
18661;SDS011;61528;49.456;11.098;2023-04-25T07:10:14;9.20;;;7.30;;
18661;SDS011;61528;49.456;11.098;2023-04-25T07:12:40;10.43;;;7.47;;
18661;SDS011;61528;49.456;11.098;2023-04-25T07:15:07;7.80;;;6.90;;
18661;SDS011;61528;49.456;11.098;2023-04-25T07:17:35;9.20;;;6.67;;
18661;SDS011;61528;49.456;11.098;2023-04-25T07:20:01;6.83;;;6.03;;
18661;SDS011;61528;49.456;11.098;2023-04-25T07:22:28;8.67;;;6.77;;
18661;SDS011;61528;49.456;11.098;2023-04-25T07:24:55;9.50;;;6.00;;
18661;SDS011;61528;49.456;11.098;2023-04-25T07:27:21;7.33;;;5.57;;
18661;SDS011;61528;49.456;11.098;2023-04-25T07:29:47;4.57;;;3.30;;
18661;SDS011;61528;49.456;11.098;2023-04-25T07:32:14;5.77;;;3.43;;
18661;SDS011;61528;49.456;11.098;2023-04-25T07:34:40;2.50;;;2.30;;
18661;SDS011;61528;49.456;11.098;2023-04-25T07:37:06;2.73;;;2.37;;
18661;SDS011;61528;49.456;11.098;2023-04-25T07:39:33;4.23;;;3.00;;
18661;SDS011;61528;49.456;11.098;2023-04-25T07:42:00;3.70;;;3.23;;
18661;SDS011;61528;49.456;11.098;2023-04-25T07:44:27;4.87;;;3.23;;
18661;SDS011;61528;49.456;11.098;2023-04-25T07:46:55;6.37;;;3.87;;
18661;SDS011;61528;49.456;11.098;2023-04-25T07:49:21;5.73;;;4.10;;
18661;SDS011;61528;49.456;11.098;2023-04-25T07:51:48;4.77;;;3.93;;
18661;SDS011;61528;49.456;11.098;2023-04-25T07:54:14;4.47;;;3.67;;
18661;SDS011;61528;49.456;11.098;2023-04-25T07:56:41;4.90;;;3.60;;
18661;SDS011;61528;49.456;11.098;2023-04-25T07:59:07;5.13;;;3.40;;
18661;SDS011;61528;49.456;11.098;2023-04-25T08:01:33;6.20;;;3.80;;
18661;SDS011;61528;49.456;11.098;2023-04-25T08:04:00;4.63;;;3.53;;
18661;SDS011;61528;49.456;11.098;2023-04-25T08:06:27;4.63;;;3.70;;
18661;SDS011;61528;49.456;11.098;2023-04-25T08:08:53;5.93;;;4.57;;
18661;SDS011;61528;49.456;11.098;2023-04-25T08:11:20;4.57;;;3.60;;
18661;SDS011;61528;49.456;11.098;2023-04-25T08:13:46;5.20;;;3.90;;
18661;SDS011;61528;49.456;11.098;2023-04-25T08:16:12;5.27;;;3.47;;
18661;SDS011;61528;49.456;11.098;2023-04-25T08:18:39;6.17;;;3.70;;
18661;SDS011;61528;49.456;11.098;2023-04-25T08:21:05;4.57;;;4.00;;
18661;SDS011;61528;49.456;11.098;2023-04-25T08:23:33;9.00;;;3.73;;
18661;SDS011;61528;49.456;11.098;2023-04-25T08:26:00;5.30;;;3.83;;
18661;SDS011;61528;49.456;11.098;2023-04-25T08:28:27;8.23;;;4.20;;
18661;SDS011;61528;49.456;11.098;2023-04-25T08:30:53;5.33;;;3.83;;
18661;SDS011;61528;49.456;11.098;2023-04-25T08:33:20;7.07;;;3.77;;
18661;SDS011;61528;49.456;11.098;2023-04-25T08:35:46;4.63;;;3.30;;
18661;SDS011;61528;49.456;11.098;2023-04-25T08:38:12;7.30;;;3.50;;
18661;SDS011;61528;49.456;11.098;2023-04-25T08:40:39;6.30;;;3.87;;
18661;SDS011;61528;49.456;11.098;2023-04-25T08:43:06;4.13;;;2.57;;
18661;SDS011;61528;49.456;11.098;2023-04-25T08:45:38;6.13;;;4.60;;
18661;SDS011;61528;49.456;11.098;2023-04-25T08:48:11;4.63;;;4.20;;
18661;SDS011;61528;49.456;11.098;2023-04-25T08:50:59;7.43;;;4.40;;
18661;SDS011;61528;49.456;11.098;2023-04-25T08:53:26;6.03;;;4.00;;
18661;SDS011;61528;49.456;11.098;2023-04-25T08:55:53;5.43;;;3.70;;
18661;SDS011;61528;49.456;11.098;2023-04-25T08:58:20;5.70;;;4.00;;
18661;SDS011;61528;49.456;11.098;2023-04-25T09:00:47;6.60;;;4.23;;
18661;SDS011;61528;49.456;11.098;2023-04-25T09:03:13;6.43;;;4.30;;
18661;SDS011;61528;49.456;11.098;2023-04-25T09:05:40;4.67;;;4.00;;
18661;SDS011;61528;49.456;11.098;2023-04-25T09:08:07;8.57;;;4.63;;
18661;SDS011;61528;49.456;11.098;2023-04-25T09:10:33;6.90;;;4.90;;
18661;SDS011;61528;49.456;11.098;2023-04-25T09:15:30;5.73;;;5.23;;
18661;SDS011;61528;49.456;11.098;2023-04-25T09:17:57;5.67;;;4.80;;
18661;SDS011;61528;49.456;11.098;2023-04-25T09:20:23;5.63;;;4.70;;
18661;SDS011;61528;49.456;11.098;2023-04-25T09:23:11;5.80;;;5.17;;
18661;SDS011;61528;49.456;11.098;2023-04-25T09:25:37;7.03;;;5.23;;
18661;SDS011;61528;49.456;11.098;2023-04-25T09:28:08;9.73;;;5.73;;
18661;SDS011;61528;49.456;11.098;2023-04-25T09:30:35;6.43;;;5.33;;
18661;SDS011;61528;49.456;11.098;2023-04-25T09:33:05;6.10;;;5.33;;
18661;SDS011;61528;49.456;11.098;2023-04-25T09:35:39;7.50;;;5.10;;
18661;SDS011;61528;49.456;11.098;2023-04-25T09:38:11;6.43;;;4.63;;
18661;SDS011;61528;49.456;11.098;2023-04-25T09:40:45;5.23;;;4.80;;
18661;SDS011;61528;49.456;11.098;2023-04-25T09:43:24;5.13;;;4.63;;
18661;SDS011;61528;49.456;11.098;2023-04-25T09:45:51;5.87;;;4.40;;
18661;SDS011;61528;49.456;11.098;2023-04-25T09:48:21;6.30;;;4.57;;
18661;SDS011;61528;49.456;11.098;2023-04-25T09:51:03;6.00;;;4.67;;
18661;SDS011;61528;49.456;11.098;2023-04-25T09:53:31;4.10;;;3.50;;
18661;SDS011;61528;49.456;11.098;2023-04-25T09:55:57;5.87;;;3.87;;
18661;SDS011;61528;49.456;11.098;2023-04-25T09:58:25;4.93;;;3.97;;
18661;SDS011;61528;49.456;11.098;2023-04-25T10:00:56;5.70;;;3.83;;
18661;SDS011;61528;49.456;11.098;2023-04-25T10:03:25;5.07;;;3.70;;
18661;SDS011;61528;49.456;11.098;2023-04-25T10:05:52;4.67;;;3.90;;
18661;SDS011;61528;49.456;11.098;2023-04-25T10:08:19;4.80;;;3.90;;
18661;SDS011;61528;49.456;11.098;2023-04-25T10:10:46;4.50;;;3.60;;
18661;SDS011;61528;49.456;11.098;2023-04-25T10:13:13;4.20;;;3.80;;
18661;SDS011;61528;49.456;11.098;2023-04-25T10:15:40;5.63;;;4.07;;
18661;SDS011;61528;49.456;11.098;2023-04-25T10:18:09;5.40;;;4.47;;
18661;SDS011;61528;49.456;11.098;2023-04-25T10:20:35;4.77;;;4.37;;
18661;SDS011;61528;49.456;11.098;2023-04-25T10:23:13;5.13;;;4.63;;
18661;SDS011;61528;49.456;11.098;2023-04-25T10:25:40;3.57;;;2.63;;
18661;SDS011;61528;49.456;11.098;2023-04-25T10:28:07;2.77;;;2.20;;
18661;SDS011;61528;49.456;11.098;2023-04-25T10:30:33;4.03;;;2.50;;
18661;SDS011;61528;49.456;11.098;2023-04-25T10:33:00;2.80;;;2.43;;
18661;SDS011;61528;49.456;11.098;2023-04-25T10:35:27;3.33;;;2.37;;
18661;SDS011;61528;49.456;11.098;2023-04-25T10:38:10;3.30;;;2.20;;
18661;SDS011;61528;49.456;11.098;2023-04-25T10:40:37;2.63;;;2.00;;
18661;SDS011;61528;49.456;11.098;2023-04-25T10:45:51;3.57;;;2.30;;
18661;SDS011;61528;49.456;11.098;2023-04-25T10:48:51;3.67;;;2.43;;
18661;SDS011;61528;49.456;11.098;2023-04-25T10:51:11;2.87;;;2.30;;
18661;SDS011;61528;49.456;11.098;2023-04-25T10:53:37;3.93;;;2.27;;
18661;SDS011;61528;49.456;11.098;2023-04-25T10:56:19;2.87;;;2.37;;
18661;SDS011;61528;49.456;11.098;2023-04-25T10:58:46;3.67;;;2.07;;
18661;SDS011;61528;49.456;11.098;2023-04-25T11:01:13;5.43;;;2.20;;
18661;SDS011;61528;49.456;11.098;2023-04-25T11:03:42;2.50;;;1.93;;
18661;SDS011;61528;49.456;11.098;2023-04-25T11:06:23;3.20;;;1.90;;
18661;SDS011;61528;49.456;11.098;2023-04-25T11:08:50;1.67;;;1.40;;
18661;SDS011;61528;49.456;11.098;2023-04-25T11:11:17;4.27;;;1.70;;
18661;SDS011;61528;49.456;11.098;2023-04-25T11:13:44;3.23;;;1.90;;
18661;SDS011;61528;49.456;11.098;2023-04-25T11:16:10;2.87;;;1.80;;
18661;SDS011;61528;49.456;11.098;2023-04-25T11:18:37;5.10;;;1.97;;
18661;SDS011;61528;49.456;11.098;2023-04-25T11:21:03;2.50;;;1.77;;
18661;SDS011;61528;49.456;11.098;2023-04-25T11:23:30;3.77;;;1.87;;
18661;SDS011;61528;49.456;11.098;2023-04-25T11:25:56;3.10;;;1.77;;
18661;SDS011;61528;49.456;11.098;2023-04-25T11:28:22;1.93;;;1.60;;
18661;SDS011;61528;49.456;11.098;2023-04-25T11:30:49;1.97;;;1.80;;
18661;SDS011;61528;49.456;11.098;2023-04-25T11:33:16;5.17;;;2.10;;
18661;SDS011;61528;49.456;11.098;2023-04-25T11:35:43;2.07;;;1.87;;
18661;SDS011;61528;49.456;11.098;2023-04-25T11:38:09;3.27;;;1.83;;
18661;SDS011;61528;49.456;11.098;2023-04-25T11:40:36;2.93;;;1.67;;
18661;SDS011;61528;49.456;11.098;2023-04-25T11:43:02;1.57;;;1.40;;
18661;SDS011;61528;49.456;11.098;2023-04-25T11:45:28;1.83;;;1.60;;
18661;SDS011;61528;49.456;11.098;2023-04-25T11:47:56;2.93;;;1.80;;
18661;SDS011;61528;49.456;11.098;2023-04-25T11:50:23;2.93;;;1.70;;
18661;SDS011;61528;49.456;11.098;2023-04-25T11:52:49;2.00;;;1.80;;
18661;SDS011;61528;49.456;11.098;2023-04-25T11:55:16;2.63;;;1.87;;
18661;SDS011;61528;49.456;11.098;2023-04-25T11:57:44;1.47;;;1.33;;
18661;SDS011;61528;49.456;11.098;2023-04-25T12:00:12;3.23;;;1.30;;
18661;SDS011;61528;49.456;11.098;2023-04-25T12:02:45;1.60;;;1.37;;
18661;SDS011;61528;49.456;11.098;2023-04-25T12:05:14;1.50;;;1.40;;
18661;SDS011;61528;49.456;11.098;2023-04-25T12:07:41;1.37;;;1.27;;
18661;SDS011;61528;49.456;11.098;2023-04-25T12:10:09;1.93;;;1.23;;
18661;SDS011;61528;49.456;11.098;2023-04-25T12:12:35;1.10;;;1.10;;
18661;SDS011;61528;49.456;11.098;2023-04-25T12:15:09;1.33;;;1.23;;
18661;SDS011;61528;49.456;11.098;2023-04-25T12:17:36;2.03;;;1.40;;
18661;SDS011;61528;49.456;11.098;2023-04-25T12:20:06;2.60;;;1.20;;
18661;SDS011;61528;49.456;11.098;2023-04-25T12:22:33;2.03;;;1.30;;
18661;SDS011;61528;49.456;11.098;2023-04-25T12:25:02;5.07;;;1.37;;
18661;SDS011;61528;49.456;11.098;2023-04-25T12:27:30;1.93;;;1.43;;
18661;SDS011;61528;49.456;11.098;2023-04-25T12:29:57;1.77;;;1.30;;
18661;SDS011;61528;49.456;11.098;2023-04-25T12:32:24;1.30;;;1.20;;
18661;SDS011;61528;49.456;11.098;2023-04-25T12:34:51;1.93;;;1.40;;
18661;SDS011;61528;49.456;11.098;2023-04-25T12:37:17;1.87;;;1.60;;
18661;SDS011;61528;49.456;11.098;2023-04-25T12:39:44;2.17;;;1.40;;
18661;SDS011;61528;49.456;11.098;2023-04-25T12:42:11;1.97;;;1.27;;
18661;SDS011;61528;49.456;11.098;2023-04-25T12:44:38;2.03;;;1.57;;
18661;SDS011;61528;49.456;11.098;2023-04-25T12:47:04;3.77;;;1.30;;
18661;SDS011;61528;49.456;11.098;2023-04-25T12:49:30;1.30;;;1.23;;
18661;SDS011;61528;49.456;11.098;2023-04-25T12:51:57;2.03;;;1.47;;
18661;SDS011;61528;49.456;11.098;2023-04-25T12:54:23;1.57;;;1.40;;
18661;SDS011;61528;49.456;11.098;2023-04-25T12:56:51;2.07;;;1.50;;
18661;SDS011;61528;49.456;11.098;2023-04-25T12:59:17;1.70;;;1.60;;
18661;SDS011;61528;49.456;11.098;2023-04-25T13:01:45;2.20;;;1.40;;
18661;SDS011;61528;49.456;11.098;2023-04-25T13:04:12;1.17;;;1.03;;
18661;SDS011;61528;49.456;11.098;2023-04-25T13:06:38;2.90;;;1.67;;
18661;SDS011;61528;49.456;11.098;2023-04-25T13:09:05;3.37;;;1.87;;
18661;SDS011;61528;49.456;11.098;2023-04-25T13:11:31;1.83;;;1.50;;
18661;SDS011;61528;49.456;11.098;2023-04-25T13:13:58;1.60;;;1.37;;
18661;SDS011;61528;49.456;11.098;2023-04-25T13:16:25;2.43;;;1.80;;
18661;SDS011;61528;49.456;11.098;2023-04-25T13:18:52;1.47;;;1.37;;
18661;SDS011;61528;49.456;11.098;2023-04-25T13:21:18;1.73;;;1.60;;
18661;SDS011;61528;49.456;11.098;2023-04-25T13:23:44;1.97;;;1.80;;
18661;SDS011;61528;49.456;11.098;2023-04-25T13:26:11;2.70;;;1.50;;
18661;SDS011;61528;49.456;11.098;2023-04-25T13:28:38;1.80;;;1.70;;
18661;SDS011;61528;49.456;11.098;2023-04-25T13:31:05;2.73;;;1.63;;
18661;SDS011;61528;49.456;11.098;2023-04-25T13:33:33;1.60;;;1.50;;
18661;SDS011;61528;49.456;11.098;2023-04-25T13:36:00;1.90;;;1.60;;
18661;SDS011;61528;49.456;11.098;2023-04-25T13:38:26;2.40;;;1.90;;
18661;SDS011;61528;49.456;11.098;2023-04-25T13:40:53;1.80;;;1.50;;
18661;SDS011;61528;49.456;11.098;2023-04-25T13:43:20;2.70;;;2.17;;
18661;SDS011;61528;49.456;11.098;2023-04-25T13:45:49;1.80;;;1.70;;
18661;SDS011;61528;49.456;11.098;2023-04-25T13:48:17;2.53;;;1.80;;
18661;SDS011;61528;49.456;11.098;2023-04-25T13:50:43;3.03;;;1.70;;
18661;SDS011;61528;49.456;11.098;2023-04-25T13:53:10;1.63;;;1.53;;
18661;SDS011;61528;49.456;11.098;2023-04-25T13:55:37;2.07;;;1.60;;
18661;SDS011;61528;49.456;11.098;2023-04-25T13:58:04;2.43;;;2.00;;
18661;SDS011;61528;49.456;11.098;2023-04-25T14:00:33;1.90;;;1.53;;
18661;SDS011;61528;49.456;11.098;2023-04-25T14:03:00;3.00;;;1.70;;
18661;SDS011;61528;49.456;11.098;2023-04-25T14:05:29;3.00;;;1.80;;
18661;SDS011;61528;49.456;11.098;2023-04-25T14:07:56;3.10;;;1.57;;
18661;SDS011;61528;49.456;11.098;2023-04-25T14:10:23;4.70;;;1.87;;
18661;SDS011;61528;49.456;11.098;2023-04-25T14:12:49;2.27;;;2.00;;
18661;SDS011;61528;49.456;11.098;2023-04-25T14:15:16;2.20;;;1.83;;
18661;SDS011;61528;49.456;11.098;2023-04-25T14:17:42;2.43;;;2.10;;
18661;SDS011;61528;49.456;11.098;2023-04-25T14:20:10;3.67;;;2.50;;
18661;SDS011;61528;49.456;11.098;2023-04-25T14:22:37;2.50;;;2.13;;
18661;SDS011;61528;49.456;11.098;2023-04-25T14:25:08;4.83;;;3.90;;
18661;SDS011;61528;49.456;11.098;2023-04-25T14:27:34;6.30;;;3.87;;
18661;SDS011;61528;49.456;11.098;2023-04-25T14:30:01;7.60;;;5.27;;
18661;SDS011;61528;49.456;11.098;2023-04-25T14:32:27;11.93;;;7.90;;
18661;SDS011;61528;49.456;11.098;2023-04-25T14:34:53;10.63;;;7.13;;
18661;SDS011;61528;49.456;11.098;2023-04-25T14:37:20;5.53;;;3.87;;
18661;SDS011;61528;49.456;11.098;2023-04-25T14:39:46;7.43;;;4.87;;